De Winton South Calgary Airport

CEH4 · 艾伯塔, 加拿大

罗盘
风向 的 De Winton South Calgary Airport 10/28
风: 2 kt, 1 beaufort

1 kt

2 kt
改变
0 ft 6.000 12.000 18.000 24.000 30.000
Cloud Cloud
FEW 23.000
METAR CYYC 080400Z VRB02KT 15SM FEW230 M01/M04 A2965 RMK CI2 SLP079

METAR De Winton South Calgary Airport - CEH4

De Winton South Calgary Airport是,加拿大中的小机场。 该机场有2条跑道: 10/28 和 16/34. 该领域的国际民航组织标志是CEH4.

这份报告是针对2023年2月7日 21:00, 当地时间在Calgary International Airport进行的。

机场观察

可变方向的风很小或没有风。

可见度为15 mi。

有几云在23.000 ft的高度。 没有观察到天花板。

温度为-1 °C,阵风为-3 °C。 露点为-4 °C,相对湿度为80%。 海平面上的气压为29,65 inHg (QNH)。

白天

今天,太阳从07:59升起,在17:39降落。 这适用于De Winton South Calgary Airport,世界夏令时可能有所不同。 当地时间与世界标准时间之间的时差为-7 小时。 当前,没有夏令时有效。

公司介绍

我们没有关于这个机场的公司信息。

体会

到Vliegles.nl去找飞行课程,跳伞和其他飞行体验。 浏览页面,了解De Winton South Calgary Airport附近所有可用的活动。 你也可以使用搜索功能来寻找你所在地附近的特定飞行课程、跳伞或其他飞行体验。

跑道

Id 标题 侧风 逆风 侧风 %
10/28 120°-300° 2 kt 1 kt 87 %
16/34 179°-359° 2 kt 2 %

逆风成分最大的方向会被突出显示,并用于横风计算。 这并不一定意味着这个方向在使用。

乌云

23.000 ft FEW 几云

温度 & 天气

温度 -1 °C
露点 -4 °C
相对湿度 80%
风寒 -3 °C
Kp-index 3 (0-9)

评论

SLP079海平面压力为29,76 inHg (29,76 inHg)
CI2

白天

日出
08:01 (10:46)
中午
12:50
日落
17:39

小工具

你想在你的网站上有一个关于De Winton South Calgary Airport的当前航空天气(METAR)的小部件吗?

显示HTML代码

我们和第三方通过cookies跟踪您在我们网站上的互联网行为。如果你继续,我们认为你同意我们的饼干政策